Time;durP1;ratioP1;P1;durP2;ratioP2;P2;SDS_P1;SDS_P2;PMS_P1;PMS_P2;Temp;Humidity;BMP_temperature;BMP_pressure;BME280_temperature;BME280_humidity;BME280_pressure;Samples;Min_cycle;Max_cycle;Signal;HPM_P1;HPM_P2
2022/12/27 00:00:00;;;;;;;13.00;2.35;;;;;;;;;;5052726;28;20074;-75
2022/12/27 00:02:26;;;;;;;6.80;1.73;;;;;;;;;;5033054;28;20587;-75
2022/12/27 00:04:53;;;;;;;6.03;1.88;;;;;;;;;;5036362;28;20048;-74
2022/12/27 00:07:19;;;;;;;8.50;2.33;;;;;;;;;;5057204;28;20105;-75
2022/12/27 00:09:45;;;;;;;7.28;2.30;;;;;;;;;;5049761;28;20536;-75
2022/12/27 00:12:11;;;;;;;9.63;2.47;;;;;;;;;;5048142;28;20055;-75
2022/12/27 00:14:37;;;;;;;13.20;2.60;;;;;;;;;;5051944;28;20471;-74
2022/12/27 00:17:03;;;;;;;11.10;2.13;;;;;;;;;;5048081;28;20340;-74
2022/12/27 00:19:29;;;;;;;12.30;2.10;;;;;;;;;;5065244;28;20493;-75
2022/12/27 00:21:56;;;;;;;5.47;1.75;;;;;;;;;;5056504;28;20048;-75
2022/12/27 00:24:22;;;;;;;10.02;2.38;;;;;;;;;;5050963;28;21221;-75
2022/12/27 00:26:48;;;;;;;5.88;1.55;;;;;;;;;;5052782;28;20039;-75
2022/12/27 00:29:14;;;;;;;20.38;1.88;;;;;;;;;;5034455;28;20374;-75
2022/12/27 00:31:40;;;;;;;3.97;1.48;;;;;;;;;;5049957;28;20488;-74
2022/12/27 00:34:06;;;;;;;5.03;0.90;;;;;;;;;;5047135;28;20775;-75
2022/12/27 00:36:33;;;;;;;5.55;1.27;;;;;;;;;;5047591;28;20085;-75
2022/12/27 00:38:59;;;;;;;9.82;2.17;;;;;;;;;;5048365;28;20067;-74
2022/12/27 00:41:26;;;;;;;11.27;1.77;;;;;;;;;;5045475;28;20040;-69
2022/12/27 00:43:55;;;;;;;5.50;1.30;;;;;;;;;;5047608;28;20048;-69
2022/12/27 00:46:22;;;;;;;5.50;1.70;;;;;;;;;;5031705;28;20056;-69
2022/12/27 00:48:48;;;;;;;11.85;1.83;;;;;;;;;;5035483;28;20535;-70
2022/12/27 00:51:16;;;;;;;9.02;1.58;;;;;;;;;;5045032;28;20090;-70
2022/12/27 00:53:42;;;;;;;11.45;1.77;;;;;;;;;;5049187;28;20076;-70
2022/12/27 00:56:16;;;;;;;11.05;1.73;;;;;;;;;;5061209;28;20089;-70
2022/12/27 00:58:42;;;;;;;8.10;1.58;;;;;;;;;;5046310;28;20080;-70
2022/12/27 01:01:09;;;;;;;10.73;1.80;;;;;;;;;;5029954;28;20131;-70
2022/12/27 01:03:35;;;;;;;8.52;1.88;;;;;;;;;;5032990;28;20097;-70
2022/12/27 01:06:08;;;;;;;11.20;2.00;;;;;;;;;;5050290;28;20204;-69
2022/12/27 01:08:34;;;;;;;7.60;2.00;;;;;;;;;;5051423;28;20036;-70
2022/12/27 01:11:01;;;;;;;5.07;1.48;;;;;;;;;;5049844;28;20046;-70
2022/12/27 01:13:27;;;;;;;12.07;1.80;;;;;;;;;;5048330;28;20040;-69
2022/12/27 01:15:53;;;;;;;6.32;1.80;;;;;;;;;;5049002;28;20039;-70
2022/12/27 01:18:19;;;;;;;23.30;2.55;;;;;;;;;;5054386;28;20658;-70
2022/12/27 01:20:46;;;;;;;9.18;1.90;;;;;;;;;;5048648;28;20044;-67
2022/12/27 01:23:12;;;;;;;10.30;1.58;;;;;;;;;;5037864;28;20040;-69
2022/12/27 01:25:38;;;;;;;9.38;1.67;;;;;;;;;;5050935;28;20035;-70
2022/12/27 01:28:04;;;;;;;7.82;1.73;;;;;;;;;;5050391;28;20052;-70
2022/12/27 01:30:30;;;;;;;5.93;1.50;;;;;;;;;;5048915;28;21559;-70
2022/12/27 01:32:56;;;;;;;8.73;1.70;;;;;;;;;;5045509;28;20048;-70
2022/12/27 01:35:22;;;;;;;9.10;1.52;;;;;;;;;;5050692;28;20070;-70
2022/12/27 01:37:48;;;;;;;10.10;1.92;;;;;;;;;;5049255;28;20048;-70
2022/12/27 01:40:14;;;;;;;7.03;1.65;;;;;;;;;;5042819;28;20281;-70
2022/12/27 01:42:53;;;;;;;6.60;1.55;;;;;;;;;;5045578;28;20413;-70
2022/12/27 01:45:26;;;;;;;6.88;1.83;;;;;;;;;;5029104;28;20051;-70
2022/12/27 01:48:30;;;;;;;11.65;2.28;;;;;;;;;;5028143;28;20051;-70
2022/12/27 01:50:59;;;;;;;6.65;1.33;;;;;;;;;;4973715;28;20545;-70
2022/12/27 01:53:27;;;;;;;8.20;1.90;;;;;;;;;;4975985;28;20644;-71
2022/12/27 01:55:56;;;;;;;12.18;3.03;;;;;;;;;;5009852;28;20156;-71
2022/12/27 01:58:37;;;;;;;13.35;2.60;;;;;;;;;;5045027;28;20108;-72
2022/12/27 02:01:04;;;;;;;10.45;1.92;;;;;;;;;;5048106;28;20624;-71
2022/12/27 02:03:32;;;;;;;11.73;2.70;;;;;;;;;;5048552;28;20079;-73
2022/12/27 02:05:59;;;;;;;10.90;2.40;;;;;;;;;;5048533;28;20140;-76
2022/12/27 02:08:34;;;;;;;10.38;1.80;;;;;;;;;;5049282;28;20036;-76
2022/12/27 02:11:00;;;;;;;5.28;1.45;;;;;;;;;;5049620;28;20044;-77
2022/12/27 02:13:28;;;;;;;6.28;3.22;;;;;;;;;;5052466;28;20115;-78
2022/12/27 02:15:54;;;;;;;15.35;2.33;;;;;;;;;;5049679;28;20031;-77
2022/12/27 02:18:20;;;;;;;14.15;1.88;;;;;;;;;;5050760;28;20105;-78
2022/12/27 02:21:05;;;;;;;13.77;2.08;;;;;;;;;;5054690;28;20039;-77
2022/12/27 02:26:34;;;;;;;16.08;2.95;;;;;;;;;;5052840;28;20048;-76
2022/12/27 02:29:06;;;;;;;8.10;1.90;;;;;;;;;;5044586;28;20668;-75
2022/12/27 02:31:48;;;;;;;22.02;3.08;;;;;;;;;;5051353;28;20044;-76
2022/12/27 02:34:33;;;;;;;18.05;2.40;;;;;;;;;;5048973;28;20050;-76
2022/12/27 02:37:02;;;;;;;13.90;2.10;;;;;;;;;;5052337;28;20143;-76
2022/12/27 02:39:30;;;;;;;15.98;2.25;;;;;;;;;;5049487;28;20430;-75
2022/12/27 02:53:26;;;;;;;12.57;2.20;;;;;;;;;;5048399;28;20095;-75
2022/12/27 02:59:03;;;;;;;10.35;1.58;;;;;;;;;;5051525;28;20052;-76
2022/12/27 03:04:32;;;;;;;8.18;1.63;;;;;;;;;;5052054;28;20049;-78
2022/12/27 03:07:21;;;;;;;9.57;1.80;;;;;;;;;;5051956;28;20040;-77
2022/12/27 03:18:21;;;;;;;7.32;1.88;;;;;;;;;;5050200;28;20237;-77
2022/12/27 03:26:19;;;;;;;10.70;1.88;;;;;;;;;;5051985;28;20734;-76
2022/12/27 03:34:39;;;;;;;8.80;1.77;;;;;;;;;;5050321;28;20087;-75
2022/12/27 03:40:03;;;;;;;15.20;2.55;;;;;;;;;;5049984;28;20651;-76
2022/12/27 03:45:19;;;;;;;14.23;2.10;;;;;;;;;;5051689;28;20442;-76
2022/12/27 03:47:53;;;;;;;12.13;2.42;;;;;;;;;;5049302;28;20048;-76
2022/12/27 03:50:28;;;;;;;18.30;2.90;;;;;;;;;;5049208;28;20048;-76
2022/12/27 03:52:57;;;;;;;17.42;2.58;;;;;;;;;;5049416;28;20071;-76
2022/12/27 03:55:23;;;;;;;11.43;2.15;;;;;;;;;;5050373;28;20123;-75
2022/12/27 03:57:50;;;;;;;8.93;1.65;;;;;;;;;;5049486;28;20257;-75
2022/12/27 04:00:16;;;;;;;13.90;2.47;;;;;;;;;;5048062;28;20148;-75
2022/12/27 04:02:42;;;;;;;8.85;1.77;;;;;;;;;;5048404;28;20044;-76
2022/12/27 04:05:08;;;;;;;12.45;2.50;;;;;;;;;;5032785;28;20048;-75
2022/12/27 04:07:34;;;;;;;16.55;2.38;;;;;;;;;;5050813;28;20052;-76
2022/12/27 04:34:42;;;;;;;15.20;2.42;;;;;;;;;;5050432;28;20056;-76
2022/12/27 04:37:16;;;;;;;15.50;2.50;;;;;;;;;;5051041;28;20074;-75
2022/12/27 04:54:55;;;;;;;10.93;2.20;;;;;;;;;;5050540;28;21726;-76
2022/12/27 04:56:40;;;;;;;12.90;2.42;;;;;;;;;;5051747;28;20075;-75
2022/12/27 05:02:02;;;;;;;14.85;2.75;;;;;;;;;;5048341;28;20055;-76
2022/12/27 05:04:29;;;;;;;15.77;2.50;;;;;;;;;;5045875;28;20047;-76
2022/12/27 05:06:56;;;;;;;14.00;2.67;;;;;;;;;;5051948;28;21676;-75
2022/12/27 05:14:54;;;;;;;11.77;2.83;;;;;;;;;;5053687;28;20059;-75
2022/12/27 05:17:21;;;;;;;13.88;1.90;;;;;;;;;;5037741;28;20048;-75
2022/12/27 05:19:47;;;;;;;7.78;1.65;;;;;;;;;;5035668;28;20492;-75
2022/12/27 05:27:42;;;;;;;10.05;2.72;;;;;;;;;;5058213;28;20049;-75
2022/12/27 05:30:09;;;;;;;16.02;2.00;;;;;;;;;;5054737;28;20223;-75
2022/12/27 05:32:35;;;;;;;9.73;1.80;;;;;;;;;;5040229;28;22106;-75
2022/12/27 05:35:01;;;;;;;15.40;2.65;;;;;;;;;;5048937;28;20135;-75
2022/12/27 05:37:27;;;;;;;20.50;2.63;;;;;;;;;;5059575;28;20127;-75
2022/12/27 05:39:53;;;;;;;10.15;2.38;;;;;;;;;;5056817;28;20044;-76
2022/12/27 05:42:19;;;;;;;10.90;2.05;;;;;;;;;;5055286;28;20048;-76
2022/12/27 05:44:45;;;;;;;11.80;2.58;;;;;;;;;;5057592;28;20171;-76
2022/12/27 05:47:11;;;;;;;11.88;1.88;;;;;;;;;;5053894;28;20205;-75
2022/12/27 05:49:37;;;;;;;10.48;2.60;;;;;;;;;;5064600;28;20048;-74
2022/12/27 05:52:03;;;;;;;18.10;3.20;;;;;;;;;;5041877;28;20125;-75
2022/12/27 05:54:29;;;;;;;12.95;1.80;;;;;;;;;;5058154;28;20527;-75
2022/12/27 05:56:55;;;;;;;11.27;1.92;;;;;;;;;;5059030;28;20857;-75
2022/12/27 05:59:21;;;;;;;9.98;1.92;;;;;;;;;;5040864;28;20048;-74
2022/12/27 06:01:47;;;;;;;13.57;1.90;;;;;;;;;;5058857;28;20213;-75
2022/12/27 06:04:13;;;;;;;13.15;1.98;;;;;;;;;;5058853;28;20051;-75
2022/12/27 06:06:39;;;;;;;12.90;2.25;;;;;;;;;;5057936;28;20040;-75
2022/12/27 06:09:05;;;;;;;16.83;2.33;;;;;;;;;;5037886;28;20525;-75
2022/12/27 06:11:32;;;;;;;24.20;3.75;;;;;;;;;;5049907;28;22008;-75
2022/12/27 06:13:58;;;;;;;18.15;3.42;;;;;;;;;;5060779;28;20055;-75
2022/12/27 06:16:24;;;;;;;12.75;2.63;;;;;;;;;;5059722;28;20076;-75
2022/12/27 06:18:50;;;;;;;13.63;1.90;;;;;;;;;;5063425;28;20396;-75
2022/12/27 06:21:18;;;;;;;10.52;1.83;;;;;;;;;;5055188;28;20055;-74
2022/12/27 06:23:44;;;;;;;26.90;3.63;;;;;;;;;;5060653;28;20056;-76
2022/12/27 06:26:15;;;;;;;10.48;2.42;;;;;;;;;;5059524;28;20493;-76
2022/12/27 06:28:41;;;;;;;10.80;2.30;;;;;;;;;;5059847;28;20036;-75
2022/12/27 06:31:07;;;;;;;17.60;2.38;;;;;;;;;;5061827;28;20167;-75
2022/12/27 06:33:34;;;;;;;18.83;2.28;;;;;;;;;;5062051;28;20044;-75
2022/12/27 06:36:05;;;;;;;23.10;3.35;;;;;;;;;;5063815;28;20050;-75
2022/12/27 06:38:31;;;;;;;15.63;2.75;;;;;;;;;;5062428;28;20044;-75
2022/12/27 06:41:00;;;;;;;16.60;2.72;;;;;;;;;;5061100;28;20116;-76
2022/12/27 06:43:27;;;;;;;17.13;2.63;;;;;;;;;;5060594;28;20102;-75
2022/12/27 06:45:57;;;;;;;13.48;3.08;;;;;;;;;;5057943;28;20045;-76
2022/12/27 06:48:24;;;;;;;18.60;2.80;;;;;;;;;;5060946;28;20090;-75
2022/12/27 06:50:50;;;;;;;13.85;4.50;;;;;;;;;;5062484;28;20040;-70
2022/12/27 06:53:16;;;;;;;20.17;2.83;;;;;;;;;;5061137;28;20032;-70
2022/12/27 06:55:42;;;;;;;15.35;2.85;;;;;;;;;;5062469;28;20446;-71
2022/12/27 06:58:08;;;;;;;18.05;2.53;;;;;;;;;;5045954;28;20054;-71
2022/12/27 07:00:34;;;;;;;15.82;2.75;;;;;;;;;;5057468;28;20096;-71
2022/12/27 07:03:00;;;;;;;24.00;3.20;;;;;;;;;;5059573;28;20051;-71
2022/12/27 07:05:26;;;;;;;15.40;2.72;;;;;;;;;;5059695;28;20045;-71
2022/12/27 07:07:53;;;;;;;18.05;2.67;;;;;;;;;;5044638;28;20474;-70
2022/12/27 07:10:19;;;;;;;26.20;3.03;;;;;;;;;;5062121;28;20131;-71
2022/12/27 07:12:45;;;;;;;14.05;3.10;;;;;;;;;;5058880;28;20162;-70
2022/12/27 07:15:11;;;;;;;18.20;3.65;;;;;;;;;;5045106;28;20097;-70
2022/12/27 07:17:38;;;;;;;14.40;2.75;;;;;;;;;;5039996;28;20050;-71
2022/12/27 07:20:04;;;;;;;14.57;3.50;;;;;;;;;;5057984;28;20040;-71
2022/12/27 07:22:30;;;;;;;15.60;2.17;;;;;;;;;;5057048;28;20190;-71
2022/12/27 07:24:57;;;;;;;22.80;4.13;;;;;;;;;;5062345;28;20050;-70
2022/12/27 07:27:23;;;;;;;12.65;2.88;;;;;;;;;;5060587;28;20434;-70
2022/12/27 07:29:49;;;;;;;23.13;4.07;;;;;;;;;;5058943;28;20538;-70
2022/12/27 07:32:15;;;;;;;15.05;3.10;;;;;;;;;;5056922;28;20040;-69
2022/12/27 07:34:41;;;;;;;15.77;3.75;;;;;;;;;;5056290;28;20592;-70
2022/12/27 07:37:07;;;;;;;19.63;3.08;;;;;;;;;;5042850;28;20058;-70
2022/12/27 07:39:33;;;;;;;18.73;3.03;;;;;;;;;;5054230;28;20268;-70
2022/12/27 07:41:59;;;;;;;16.05;2.65;;;;;;;;;;5055749;28;20082;-70
2022/12/27 07:44:26;;;;;;;19.92;3.72;;;;;;;;;;5057271;28;20036;-70
2022/12/27 07:46:52;;;;;;;10.70;2.60;;;;;;;;;;5057061;28;20407;-70
2022/12/27 07:49:18;;;;;;;13.70;2.50;;;;;;;;;;5055316;28;21730;-70
2022/12/27 07:51:44;;;;;;;16.55;3.42;;;;;;;;;;5055329;28;20544;-70
2022/12/27 07:54:10;;;;;;;12.15;3.75;;;;;;;;;;5057103;28;20815;-71
2022/12/27 07:56:36;;;;;;;10.82;3.35;;;;;;;;;;5055219;28;20457;-71
2022/12/27 07:59:02;;;;;;;15.18;2.92;;;;;;;;;;5038156;28;20128;-70
2022/12/27 08:02:02;;;;;;;16.67;3.25;;;;;;;;;;5054845;28;20036;-71
2022/12/27 08:04:15;;;;;;;19.23;4.97;;;;;;;;;;5055419;28;20055;-71
2022/12/27 08:06:41;;;;;;;14.68;3.55;;;;;;;;;;5056257;28;20048;-70
2022/12/27 08:09:10;;;;;;;14.30;4.18;;;;;;;;;;5054557;28;20784;-70
2022/12/27 08:11:36;;;;;;;12.30;3.13;;;;;;;;;;5055274;28;20170;-70
2022/12/27 08:14:02;;;;;;;10.70;2.40;;;;;;;;;;5055774;28;20483;-70
2022/12/27 08:16:28;;;;;;;12.70;2.70;;;;;;;;;;5054127;28;20049;-70
2022/12/27 08:18:55;;;;;;;22.08;3.83;;;;;;;;;;5056732;28;20127;-71
2022/12/27 08:21:22;;;;;;;19.10;4.50;;;;;;;;;;5056560;28;20052;-71
2022/12/27 08:23:49;;;;;;;13.95;3.20;;;;;;;;;;5054744;28;20499;-70
2022/12/27 08:26:15;;;;;;;15.43;2.72;;;;;;;;;;5055425;28;20040;-69
2022/12/27 08:28:42;;;;;;;15.68;3.03;;;;;;;;;;5053525;28;20303;-70
2022/12/27 08:31:09;;;;;;;9.52;2.72;;;;;;;;;;5057255;28;20063;-70
2022/12/27 08:33:35;;;;;;;18.13;3.97;;;;;;;;;;5054373;28;20131;-70
2022/12/27 08:36:05;;;;;;;13.55;4.35;;;;;;;;;;5056501;28;20646;-69
2022/12/27 08:38:31;;;;;;;19.48;3.67;;;;;;;;;;5041059;28;20471;-70
2022/12/27 08:40:57;;;;;;;18.90;3.80;;;;;;;;;;5051806;28;20536;-70
2022/12/27 08:43:24;;;;;;;11.13;3.17;;;;;;;;;;5056131;28;20496;-70
2022/12/27 08:45:51;;;;;;;11.85;2.72;;;;;;;;;;5054073;28;20081;-71
2022/12/27 08:48:17;;;;;;;14.15;2.95;;;;;;;;;;5052390;28;20056;-69
2022/12/27 08:50:43;;;;;;;10.25;3.85;;;;;;;;;;5053591;28;20053;-70
2022/12/27 08:53:09;;;;;;;14.93;4.38;;;;;;;;;;5056170;28;20048;-70
2022/12/27 08:55:36;;;;;;;9.25;2.42;;;;;;;;;;5054701;28;20067;-70
2022/12/27 08:58:04;;;;;;;15.15;3.35;;;;;;;;;;5071703;28;20052;-70
2022/12/27 09:00:30;;;;;;;11.07;2.80;;;;;;;;;;5057234;28;20044;-71
2022/12/27 09:02:57;;;;;;;14.27;2.90;;;;;;;;;;5056141;28;20058;-71
2022/12/27 09:05:23;;;;;;;11.68;3.00;;;;;;;;;;5055096;28;20048;-70
2022/12/27 09:07:49;;;;;;;18.27;4.65;;;;;;;;;;5059535;28;20039;-70
2022/12/27 09:10:16;;;;;;;19.95;3.25;;;;;;;;;;5038535;28;20044;-70
2022/12/27 09:12:42;;;;;;;11.38;2.85;;;;;;;;;;5055533;28;20051;-70
2022/12/27 09:15:08;;;;;;;18.15;3.50;;;;;;;;;;5054294;28;20052;-70
2022/12/27 09:17:35;;;;;;;11.73;4.55;;;;;;;;;;5041864;28;20087;-69
2022/12/27 09:20:01;;;;;;;15.60;2.92;;;;;;;;;;5057155;28;20053;-70
2022/12/27 09:22:30;;;;;;;10.77;2.65;;;;;;;;;;5062281;28;20048;-71
2022/12/27 09:24:56;;;;;;;13.88;2.38;;;;;;;;;;5058354;28;20096;-71
2022/12/27 09:27:22;;;;;;;13.00;2.88;;;;;;;;;;5056121;28;20479;-71
2022/12/27 09:29:48;;;;;;;16.95;4.60;;;;;;;;;;5057550;28;20662;-71
2022/12/27 09:32:14;;;;;;;18.15;2.88;;;;;;;;;;5054402;28;20040;-71
2022/12/27 09:34:41;;;;;;;16.13;2.80;;;;;;;;;;5057746;28;20096;-70
2022/12/27 09:37:11;;;;;;;12.77;2.22;;;;;;;;;;5056735;28;20056;-69
2022/12/27 09:39:37;;;;;;;17.48;3.65;;;;;;;;;;5040786;28;20850;-71
2022/12/27 09:42:11;;;;;;;14.30;2.28;;;;;;;;;;5043099;28;20051;-70
2022/12/27 09:45:00;;;;;;;13.00;2.50;;;;;;;;;;5054755;28;20249;-71
2022/12/27 09:47:28;;;;;;;13.13;3.20;;;;;;;;;;5050176;28;20083;-68
2022/12/27 09:50:00;;;;;;;16.80;3.35;;;;;;;;;;5056843;28;20646;-68
2022/12/27 09:52:29;;;;;;;13.35;3.00;;;;;;;;;;5057934;28;20106;-68
2022/12/27 09:55:10;;;;;;;14.15;3.17;;;;;;;;;;5056513;28;20057;-70
2022/12/27 09:57:38;;;;;;;16.90;3.53;;;;;;;;;;5055442;28;20056;-69
2022/12/27 10:00:07;;;;;;;15.80;2.50;;;;;;;;;;5038694;28;20055;-70
2022/12/27 10:02:33;;;;;;;14.32;2.83;;;;;;;;;;5055899;28;20044;-70
2022/12/27 10:05:00;;;;;;;11.93;2.20;;;;;;;;;;5055696;28;20044;-71
2022/12/27 10:07:29;;;;;;;13.68;3.55;;;;;;;;;;5055835;28;20036;-70
2022/12/27 10:10:01;;;;;;;16.92;2.90;;;;;;;;;;5054331;28;20302;-71
2022/12/27 10:12:34;;;;;;;15.63;3.15;;;;;;;;;;5055615;28;20041;-70
2022/12/27 10:15:04;;;;;;;20.08;2.90;;;;;;;;;;5055878;28;20071;-70
2022/12/27 10:17:49;;;;;;;15.10;4.28;;;;;;;;;;5053508;28;20045;-70
2022/12/27 10:20:26;;;;;;;21.00;3.80;;;;;;;;;;5053248;28;20596;-70
2022/12/27 10:22:54;;;;;;;15.38;2.75;;;;;;;;;;5058543;28;20618;-69
2022/12/27 10:25:22;;;;;;;17.20;3.08;;;;;;;;;;5075731;28;20048;-69
2022/12/27 10:27:49;;;;;;;21.60;3.30;;;;;;;;;;5041774;28;20068;-74
2022/12/27 10:30:18;;;;;;;14.70;2.92;;;;;;;;;;5058717;28;20275;-74
2022/12/27 10:32:44;;;;;;;6.53;2.15;;;;;;;;;;5058010;28;20432;-73
2022/12/27 10:35:14;;;;;;;6.95;1.70;;;;;;;;;;5059689;28;20047;-73
2022/12/27 10:37:40;;;;;;;16.42;3.38;;;;;;;;;;5057374;28;20504;-74
2022/12/27 10:40:29;;;;;;;12.25;2.70;;;;;;;;;;5056661;28;20044;-74
2022/12/27 10:43:01;;;;;;;13.65;2.30;;;;;;;;;;5059615;28;20043;-75
2022/12/27 10:45:32;;;;;;;17.80;2.80;;;;;;;;;;5059739;28;20064;-74
2022/12/27 10:48:10;;;;;;;10.23;2.78;;;;;;;;;;5061025;28;20896;-74
2022/12/27 10:50:37;;;;;;;7.68;2.15;;;;;;;;;;5059747;28;20086;-75
2022/12/27 10:53:03;;;;;;;9.00;2.20;;;;;;;;;;5075058;28;20071;-75
2022/12/27 10:55:34;;;;;;;17.52;3.60;;;;;;;;;;5059250;28;20660;-71
2022/12/27 10:58:18;;;;;;;20.80;3.05;;;;;;;;;;5060836;28;20040;-71
2022/12/27 11:00:52;;;;;;;7.38;2.08;;;;;;;;;;5060818;28;22125;-71
2022/12/27 11:03:19;;;;;;;11.45;2.83;;;;;;;;;;5059158;28;20055;-68
2022/12/27 11:05:57;;;;;;;6.63;2.45;;;;;;;;;;5040554;28;20360;-70
2022/12/27 11:08:24;;;;;;;12.57;3.40;;;;;;;;;;5059761;28;21117;-70
2022/12/27 11:11:10;;;;;;;20.40;3.63;;;;;;;;;;5036906;28;20058;-70
2022/12/27 11:13:36;;;;;;;12.60;2.50;;;;;;;;;;5055975;28;20044;-70
2022/12/27 11:16:02;;;;;;;13.85;2.92;;;;;;;;;;5059368;28;20044;-71
2022/12/27 11:18:36;;;;;;;11.57;2.45;;;;;;;;;;5059123;28;20051;-72
2022/12/27 11:21:03;;;;;;;12.85;1.65;;;;;;;;;;5059473;28;20044;-71
2022/12/27 11:23:42;;;;;;;17.30;2.63;;;;;;;;;;5062081;28;20071;-71
2022/12/27 11:26:17;;;;;;;11.13;3.63;;;;;;;;;;5058085;28;20791;-70
2022/12/27 11:29:03;;;;;;;7.13;2.55;;;;;;;;;;5059093;28;21157;-71
2022/12/27 11:31:35;;;;;;;13.05;3.08;;;;;;;;;;5040678;28;20044;-71
2022/12/27 11:34:06;;;;;;;17.88;3.95;;;;;;;;;;5061102;28;20071;-69
2022/12/27 11:36:39;;;;;;;13.98;1.70;;;;;;;;;;5074252;28;20044;-70
2022/12/27 11:39:06;;;;;;;11.53;2.53;;;;;;;;;;5058971;28;20146;-71
2022/12/27 11:41:52;;;;;;;11.77;2.30;;;;;;;;;;5047796;28;20147;-71
2022/12/27 11:44:21;;;;;;;11.82;2.25;;;;;;;;;;5062011;28;20715;-71
2022/12/27 11:46:56;;;;;;;20.08;2.58;;;;;;;;;;5043920;28;20060;-71
2022/12/27 11:49:24;;;;;;;10.02;2.10;;;;;;;;;;5061568;28;20574;-70
2022/12/27 11:52:03;;;;;;;11.02;2.22;;;;;;;;;;5060570;28;20028;-70
2022/12/27 11:54:38;;;;;;;9.27;2.10;;;;;;;;;;5044950;28;20044;-71
2022/12/27 11:57:19;;;;;;;9.60;2.30;;;;;;;;;;5039352;28;20482;-71
2022/12/27 11:59:52;;;;;;;6.93;2.33;;;;;;;;;;5058860;28;20040;-71
2022/12/27 12:02:37;;;;;;;13.98;2.63;;;;;;;;;;5059940;28;20051;-71
2022/12/27 12:05:09;;;;;;;13.55;2.95;;;;;;;;;;5056796;28;20546;-71
2022/12/27 12:07:57;;;;;;;15.40;3.20;;;;;;;;;;5061219;28;20103;-71
2022/12/27 12:10:38;;;;;;;12.30;2.67;;;;;;;;;;5059004;28;20470;-71
2022/12/27 12:13:08;;;;;;;14.85;2.40;;;;;;;;;;5054570;28;20526;-70
2022/12/27 12:15:34;;;;;;;9.10;2.55;;;;;;;;;;5057479;28;20459;-71
2022/12/27 12:18:30;;;;;;;5.45;1.60;;;;;;;;;;5058702;28;20131;-71
2022/12/27 12:21:15;;;;;;;13.95;2.38;;;;;;;;;;5042186;28;20570;-71
2022/12/27 12:24:10;;;;;;;11.10;2.83;;;;;;;;;;5041546;28;20476;-72
2022/12/27 12:26:43;;;;;;;9.75;2.83;;;;;;;;;;5044343;28;20052;-72
2022/12/27 12:29:28;;;;;;;10.55;2.50;;;;;;;;;;5059367;28;20036;-71
2022/12/27 12:32:13;;;;;;;17.38;3.17;;;;;;;;;;5057316;28;20086;-70
2022/12/27 12:34:39;;;;;;;;;;;;;;;;;;5059390;28;20035;-70
2022/12/27 12:37:17;;;;;;;13.70;2.13;;;;;;;;;;5046081;28;19928;-70
2022/12/27 12:39:43;;;;;;;10.20;2.28;;;;;;;;;;5041271;28;20047;-71
2022/12/27 12:42:24;;;;;;;11.02;2.55;;;;;;;;;;5060088;28;20040;-70
2022/12/27 12:45:00;;;;;;;13.32;2.50;;;;;;;;;;5061635;28;20426;-72
2022/12/27 12:47:32;;;;;;;9.73;1.98;;;;;;;;;;5057602;28;20075;-72
2022/12/27 12:50:06;;;;;;;8.70;1.80;;;;;;;;;;5057518;28;21567;-71
2022/12/27 12:52:51;;;;;;;11.05;2.17;;;;;;;;;;5057577;28;20047;-71
2022/12/27 12:55:23;;;;;;;7.75;1.92;;;;;;;;;;5055586;28;20093;-71
2022/12/27 12:57:52;;;;;;;13.20;2.15;;;;;;;;;;5057016;28;20039;-70
2022/12/27 13:00:26;;;;;;;10.30;2.35;;;;;;;;;;5054765;28;20051;-70
2022/12/27 13:03:08;;;;;;;12.88;2.63;;;;;;;;;;5063080;28;20097;-71
2022/12/27 13:05:43;;;;;;;8.93;1.88;;;;;;;;;;5058934;28;20561;-71
2022/12/27 13:08:15;;;;;;;11.02;2.55;;;;;;;;;;5053656;28;20490;-71
2022/12/27 13:11:16;;;;;;;18.90;2.05;;;;;;;;;;5056854;28;20044;-71
2022/12/27 13:13:54;;;;;;;11.80;3.47;;;;;;;;;;4982772;28;20046;-71
2022/12/27 13:16:33;;;;;;;17.95;3.72;;;;;;;;;;5049926;28;20757;-70
2022/12/27 13:19:26;;;;;;;10.65;1.88;;;;;;;;;;5057405;28;20105;-71
2022/12/27 13:22:04;;;;;;;14.02;3.28;;;;;;;;;;5027900;28;20468;-71
2022/12/27 13:24:36;;;;;;;9.48;3.05;;;;;;;;;;5033664;28;20044;-70
2022/12/27 13:27:26;;;;;;;10.68;2.08;;;;;;;;;;5056041;28;20306;-70
2022/12/27 13:29:58;;;;;;;17.15;2.70;;;;;;;;;;5053772;28;20235;-70
2022/12/27 13:32:38;;;;;;;9.60;1.90;;;;;;;;;;5054769;28;20186;-70
2022/12/27 13:35:04;;;;;;;13.25;2.60;;;;;;;;;;5056106;28;20127;-70
2022/12/27 13:37:37;;;;;;;11.88;2.75;;;;;;;;;;5054487;28;20083;-72
2022/12/27 13:40:26;;;;;;;11.88;2.47;;;;;;;;;;5056370;28;20127;-72
2022/12/27 13:43:06;;;;;;;10.98;1.65;;;;;;;;;;5030586;28;20063;-72
2022/12/27 13:45:39;;;;;;;16.20;2.67;;;;;;;;;;5056570;28;21674;-71
2022/12/27 13:48:24;;;;;;;13.75;2.17;;;;;;;;;;5059391;28;20424;-72
2022/12/27 13:51:01;;;;;;;8.40;1.88;;;;;;;;;;5056934;28;20178;-71
2022/12/27 13:53:28;;;;;;;12.70;2.22;;;;;;;;;;5057096;28;20035;-71
2022/12/27 13:55:55;;;;;;;14.13;2.78;;;;;;;;;;5072840;28;20546;-72
2022/12/27 13:58:39;;;;;;;10.18;3.05;;;;;;;;;;5060524;28;20121;-71
2022/12/27 14:01:05;;;;;;;;;;;;;;;;;;5061096;28;20060;-72
2022/12/27 14:03:43;;;;;;;17.27;2.72;;;;;;;;;;5061474;28;19924;-71
2022/12/27 14:06:18;;;;;;;7.53;2.00;;;;;;;;;;5059191;28;20104;-71
2022/12/27 14:08:55;;;;;;;10.18;2.28;;;;;;;;;;5059954;28;20084;-71
2022/12/27 14:11:40;;;;;;;12.55;2.80;;;;;;;;;;5061144;28;20040;-73
2022/12/27 14:14:08;;;;;;;14.38;2.85;;;;;;;;;;5061656;28;20048;-73
2022/12/27 14:16:38;;;;;;;15.82;2.60;;;;;;;;;;5067703;28;20116;-71
2022/12/27 14:19:07;;;;;;;9.05;2.80;;;;;;;;;;5060308;28;20048;-71
2022/12/27 14:21:46;;;;;;;9.65;2.30;;;;;;;;;;5061877;28;20407;-72
2022/12/27 14:24:12;;;;;;;9.20;1.90;;;;;;;;;;5060243;28;20132;-71
2022/12/27 14:26:57;;;;;;;11.57;2.40;;;;;;;;;;5061073;28;20115;-72
2022/12/27 14:29:41;;;;;;;24.25;3.15;;;;;;;;;;5060290;28;20078;-71
2022/12/27 14:32:07;;;;;;;13.75;3.92;;;;;;;;;;5056171;28;20374;-72
2022/12/27 14:35:09;;;;;;;8.23;2.78;;;;;;;;;;5057603;28;20578;-71
2022/12/27 14:37:57;;;;;;;6.95;2.60;;;;;;;;;;4978395;28;20477;-70
2022/12/27 14:40:43;;;;;;;10.95;2.55;;;;;;;;;;5052669;28;20059;-71
2022/12/27 14:43:12;;;;;;;12.98;2.70;;;;;;;;;;5055937;28;20055;-71
2022/12/27 14:45:57;;;;;;;11.90;2.75;;;;;;;;;;5064580;28;20044;-71
2022/12/27 14:48:33;;;;;;;13.10;3.30;;;;;;;;;;5041586;28;20058;-72
2022/12/27 14:51:24;;;;;;;16.60;3.08;;;;;;;;;;5059388;28;20555;-72
2022/12/27 14:54:04;;;;;;;10.18;2.80;;;;;;;;;;5060065;28;20100;-72
2022/12/27 14:56:46;;;;;;;17.05;3.20;;;;;;;;;;5059129;28;20036;-72
2022/12/27 14:59:31;;;;;;;15.20;3.70;;;;;;;;;;5061480;28;20071;-72
2022/12/27 15:02:26;;;;;;;14.75;3.55;;;;;;;;;;5056444;28;21989;-72
2022/12/27 15:05:16;;;;;;;11.35;3.70;;;;;;;;;;4956336;28;20181;-74
2022/12/27 15:08:00;;;;;;;11.93;3.75;;;;;;;;;;5057165;28;20040;-71
2022/12/27 15:10:38;;;;;;;12.38;4.35;;;;;;;;;;5059980;28;20054;-71
2022/12/27 15:13:23;;;;;;;14.05;4.40;;;;;;;;;;5039346;28;20125;-71
2022/12/27 15:16:01;;;;;;;15.27;6.22;;;;;;;;;;5058076;28;20389;-72
2022/12/27 15:18:43;;;;;;;22.25;8.13;;;;;;;;;;5054430;28;20044;-72
2022/12/27 15:21:14;;;;;;;16.23;5.75;;;;;;;;;;5054894;28;20054;-71
2022/12/27 15:23:53;;;;;;;13.60;5.13;;;;;;;;;;5056900;28;20069;-71
2022/12/27 15:26:30;;;;;;;20.52;5.03;;;;;;;;;;5064785;28;20462;-72
2022/12/27 15:29:01;;;;;;;20.67;9.55;;;;;;;;;;5056759;28;20435;-72
2022/12/27 15:31:31;;;;;;;24.48;11.15;;;;;;;;;;5050256;28;21151;-72
2022/12/27 15:33:57;;;;;;;16.65;5.88;;;;;;;;;;5053137;28;20420;-72
2022/12/27 15:36:37;;;;;;;14.98;6.00;;;;;;;;;;5056471;28;20856;-71
2022/12/27 15:39:03;;;;;;;13.85;5.82;;;;;;;;;;5056282;28;20458;-71
2022/12/27 15:41:35;;;;;;;20.08;6.20;;;;;;;;;;5056371;28;20177;-70
2022/12/27 15:44:08;;;;;;;18.13;5.57;;;;;;;;;;5053132;28;20491;-71
2022/12/27 15:46:34;;;;;;;14.05;5.65;;;;;;;;;;5039067;28;20048;-72
2022/12/27 15:49:19;;;;;;;17.40;6.57;;;;;;;;;;5053079;28;20119;-71
2022/12/27 15:51:54;;;;;;;13.32;6.78;;;;;;;;;;5055655;28;20122;-71
2022/12/27 15:54:30;;;;;;;11.48;6.93;;;;;;;;;;5055207;28;20454;-72
2022/12/27 15:57:16;;;;;;;13.50;6.90;;;;;;;;;;5055446;28;20504;-71
2022/12/27 15:59:51;;;;;;;22.33;8.43;;;;;;;;;;5060618;28;20040;-71
2022/12/27 16:02:17;;;;;;;17.35;8.88;;;;;;;;;;5043202;28;20140;-71
2022/12/27 16:04:55;;;;;;;19.88;7.88;;;;;;;;;;5071061;28;20055;-71
2022/12/27 16:07:40;;;;;;;23.73;10.90;;;;;;;;;;5054707;28;20139;-71
2022/12/27 16:10:25;;;;;;;23.73;10.02;;;;;;;;;;5072891;28;20116;-71
2022/12/27 16:12:51;;;;;;;15.32;8.80;;;;;;;;;;5049151;28;20135;-72
2022/12/27 16:15:39;;;;;;;21.38;11.65;;;;;;;;;;5062128;28;20052;-72
2022/12/27 16:18:25;;;;;;;23.85;10.98;;;;;;;;;;5045150;28;20109;-72
2022/12/27 16:20:56;;;;;;;17.02;11.70;;;;;;;;;;5042528;28;20130;-73
2022/12/27 16:23:23;;;;;;;17.00;9.38;;;;;;;;;;5047433;28;21479;-71
2022/12/27 16:25:59;;;;;;;25.05;13.10;;;;;;;;;;5045847;28;20392;-71
2022/12/27 16:28:27;;;;;;;23.80;11.73;;;;;;;;;;5050528;28;20081;-72
2022/12/27 16:31:00;;;;;;;18.67;10.63;;;;;;;;;;5046295;28;20036;-72
2022/12/27 16:33:26;;;;;;;29.63;14.23;;;;;;;;;;5047577;28;20061;-72
2022/12/27 16:36:13;;;;;;;24.25;14.10;;;;;;;;;;5048907;28;20060;-72